createdAt,value
2022-11-16T11:40:22.834Z,9.47
2022-11-16T11:42:58.679Z,9.61
2022-11-16T11:45:28.135Z,9.72
2022-11-16T11:48:26.985Z,9.69
2022-11-16T11:50:57.945Z,9.78
2022-11-16T11:53:33.791Z,9.80
2022-11-16T11:56:01.288Z,9.89
2022-11-16T11:58:34.591Z,9.92
2022-11-16T12:01:19.541Z,10.03
2022-11-16T12:04:08.544Z,10.05
2022-11-16T12:06:58.085Z,10.15
2022-11-16T12:10:00.983Z,10.15
2022-11-16T12:13:15.316Z,10.32
2022-11-16T12:15:50.052Z,10.30
2022-11-16T12:18:33.109Z,10.12
2022-11-16T12:21:18.081Z,10.24
2022-11-16T12:24:51.285Z,10.23
2022-11-16T12:31:14.916Z,10.56
2022-11-16T12:33:51.104Z,10.67
2022-11-16T12:36:59.905Z,10.84
2022-11-16T12:39:44.874Z,11.15
2022-11-16T12:42:33.192Z,11.22
2022-11-16T12:45:05.708Z,11.40
2022-11-16T12:48:13.451Z,11.52
2022-11-16T12:51:31.432Z,11.87
2022-11-16T12:54:15.611Z,12.12
2022-11-16T12:57:01.135Z,12.47
2022-11-16T13:00:04.435Z,12.85
2022-11-16T13:02:59.076Z,13.05
2022-11-16T13:05:38.887Z,13.13
2022-11-16T13:08:13.563Z,13.32
2022-11-16T13:10:46.276Z,13.66
2022-11-16T13:13:38.347Z,13.85
2022-11-16T13:16:07.120Z,13.92
2022-11-16T13:18:38.855Z,14.26
2022-11-16T13:21:14.407Z,14.31
2022-11-16T13:23:48.412Z,14.25
2022-11-16T13:26:24.639Z,13.96
2022-11-16T13:29:16.715Z,14.11
2022-11-16T13:32:00.531Z,13.81
2022-11-16T13:34:37.682Z,13.93
2022-11-16T13:37:38.518Z,13.74
2022-11-16T13:40:05.222Z,13.61
2022-11-16T13:42:35.126Z,13.62
2022-11-16T13:45:09.196Z,13.57
2022-11-16T13:47:37.412Z,13.80
2022-11-16T13:50:07.021Z,13.68
2022-11-16T13:53:46.265Z,13.40
2022-11-16T13:55:43.523Z,13.61
2022-11-16T13:58:20.389Z,13.51
2022-11-16T14:00:58.436Z,12.75
2022-11-16T14:03:29.230Z,12.86
2022-11-16T14:05:56.280Z,13.24
2022-11-16T14:08:23.130Z,13.29
2022-11-16T14:10:52.850Z,13.31
2022-11-16T14:13:42.380Z,13.29
2022-11-16T14:16:17.239Z,12.99
2022-11-16T14:18:45.622Z,13.00
2022-11-16T14:21:19.742Z,12.76
2022-11-16T14:23:52.573Z,12.45
2022-11-16T14:26:19.416Z,12.37
2022-11-16T14:29:34.421Z,12.21
2022-11-16T14:32:03.425Z,12.27
2022-11-16T14:34:47.456Z,12.21
2022-11-16T14:37:40.537Z,12.00
2022-11-16T14:40:15.016Z,11.77
2022-11-16T14:43:16.608Z,11.65
2022-11-16T14:45:49.682Z,11.69
2022-11-16T14:48:20.063Z,11.74
2022-11-16T14:51:15.388Z,11.59
2022-11-16T14:53:48.952Z,11.44
2022-11-16T14:56:17.755Z,11.26
2022-11-16T14:58:55.751Z,11.24
2022-11-16T15:01:32.032Z,11.17
2022-11-16T15:04:07.164Z,11.17
2022-11-16T15:06:42.426Z,11.10
2022-11-16T15:09:26.624Z,10.97
2022-11-16T15:12:12.061Z,10.83
2022-11-16T15:14:50.031Z,10.59
2022-11-16T15:17:22.593Z,10.52
2022-11-16T15:20:01.048Z,10.40
2022-11-16T15:22:31.147Z,10.28
2022-11-16T15:25:00.532Z,10.23
2022-11-16T15:27:27.698Z,10.09
2022-11-16T15:29:54.472Z,10.02
2022-11-16T15:32:21.468Z,9.97
2022-11-16T15:34:54.287Z,9.83
2022-11-16T15:37:29.293Z,9.77
2022-11-16T15:39:58.187Z,9.60
2022-11-16T15:42:27.606Z,9.48
2022-11-16T15:44:55.717Z,9.41
2022-11-16T15:47:24.133Z,9.35
2022-11-16T15:49:53.185Z,9.30
2022-11-16T15:52:50.454Z,9.19
2022-11-16T15:55:24.067Z,9.09
2022-11-16T15:58:11.449Z,9.00
2022-11-16T16:00:38.395Z,8.93
2022-11-16T16:03:21.064Z,8.78
2022-11-16T16:05:49.078Z,8.71
2022-11-16T16:08:30.267Z,8.64
2022-11-16T16:11:03.088Z,8.65
2022-11-16T16:13:33.990Z,8.59
2022-11-16T16:16:36.527Z,8.46
2022-11-16T16:19:09.748Z,8.37
2022-11-16T16:21:45.911Z,8.25
2022-11-16T16:24:37.810Z,8.15
2022-11-16T16:27:31.308Z,8.00
2022-11-16T16:30:03.384Z,7.93
2022-11-16T16:32:32.131Z,7.78
2022-11-16T16:35:05.155Z,7.77
2022-11-16T16:37:33.515Z,7.74
2022-11-16T16:40:00.751Z,7.74
2022-11-16T16:42:27.519Z,7.68
2022-11-16T16:44:54.303Z,7.58
2022-11-16T16:47:21.261Z,7.48
2022-11-16T16:49:48.874Z,7.41
2022-11-16T16:52:16.384Z,7.37
2022-11-16T16:54:43.123Z,7.33
2022-11-16T16:57:14.997Z,7.25
2022-11-16T16:59:42.583Z,7.25
2022-11-16T17:02:13.343Z,7.27
2022-11-16T17:04:40.812Z,7.24
2022-11-16T17:07:07.558Z,7.12
2022-11-16T17:09:34.196Z,7.02
2022-11-16T17:12:00.904Z,6.95
2022-11-16T17:14:27.849Z,6.88
2022-11-16T17:16:54.565Z,6.76
2022-11-16T17:19:21.220Z,6.76
2022-11-16T17:21:47.967Z,6.75
2022-11-16T17:24:14.738Z,6.72
2022-11-16T17:26:41.565Z,6.67
2022-11-16T17:29:08.609Z,6.61
2022-11-16T17:31:36.485Z,6.50
2022-11-16T17:34:03.227Z,6.37
2022-11-16T17:36:29.941Z,6.31
2022-11-16T17:38:56.980Z,6.24
2022-11-16T17:41:23.817Z,6.17
2022-11-16T17:43:53.574Z,6.12
2022-11-16T17:46:23.622Z,6.08
2022-11-16T17:48:50.569Z,6.01
2022-11-16T17:51:22.463Z,5.97
2022-11-16T17:53:52.687Z,5.90
2022-11-16T17:56:27.711Z,5.85
2022-11-16T17:58:55.264Z,5.80
2022-11-16T18:01:22.906Z,5.76
2022-11-16T18:03:49.750Z,5.72
2022-11-16T18:06:21.149Z,5.68
2022-11-16T18:08:48.814Z,5.65
2022-11-16T18:11:26.691Z,5.62
2022-11-16T18:13:58.810Z,5.58
2022-11-16T18:16:28.439Z,5.60
2022-11-16T18:18:57.982Z,5.65
2022-11-16T18:21:25.439Z,5.54
2022-11-16T18:23:52.409Z,5.43
2022-11-16T18:26:21.518Z,5.42
2022-11-16T18:28:49.678Z,5.34
2022-11-16T18:31:18.859Z,5.25
2022-11-16T18:33:46.613Z,5.21
2022-11-16T18:36:13.708Z,5.17
2022-11-16T18:38:40.739Z,5.17
2022-11-16T18:41:13.719Z,5.18
2022-11-16T18:43:42.244Z,5.12
2022-11-16T18:46:09.125Z,5.06
2022-11-16T18:48:35.902Z,5.00
2022-11-16T18:51:04.338Z,4.96
2022-11-16T18:53:33.068Z,4.94
2022-11-16T18:55:59.993Z,4.90
2022-11-16T19:01:16.698Z,4.85
2022-11-16T19:03:44.162Z,4.76
2022-11-16T19:06:12.050Z,4.74
2022-11-16T19:08:41.352Z,4.75
2022-11-16T19:11:13.387Z,4.76
2022-11-16T19:13:41.527Z,4.77
2022-11-16T19:16:09.809Z,4.83
2022-11-16T19:18:37.316Z,4.87
2022-11-16T19:21:09.085Z,4.92
2022-11-16T19:23:40.676Z,4.92
2022-11-16T19:26:07.764Z,4.93
2022-11-16T19:28:42.664Z,4.94
2022-11-16T19:31:18.506Z,4.96
2022-11-16T19:33:45.872Z,5.06
2022-11-16T19:36:15.477Z,5.02
2022-11-16T19:38:44.303Z,5.02
2022-11-16T19:41:12.531Z,5.03
2022-11-16T19:43:39.301Z,5.04
2022-11-16T19:46:11.376Z,5.04
2022-11-16T19:48:38.685Z,5.07
2022-11-16T19:51:16.541Z,5.11
2022-11-16T19:53:43.294Z,5.13
2022-11-16T19:56:14.884Z,5.14
2022-11-16T19:58:42.137Z,5.15
2022-11-16T20:01:18.427Z,5.19
2022-11-16T20:03:46.392Z,5.18
2022-11-16T20:06:25.024Z,5.22
2022-11-16T20:08:58.494Z,5.24
2022-11-16T20:11:33.749Z,5.28
2022-11-16T20:14:00.595Z,5.33
2022-11-16T20:16:38.120Z,5.33
2022-11-16T20:19:06.295Z,5.32
2022-11-16T20:21:35.435Z,5.33
2022-11-16T20:24:06.788Z,5.37
2022-11-16T20:26:35.699Z,5.40
2022-11-16T20:29:03.200Z,5.43
2022-11-16T20:31:31.895Z,5.43
2022-11-16T20:34:00.633Z,5.45
2022-11-16T20:36:29.504Z,5.47
2022-11-16T20:38:57.982Z,5.48
2022-11-16T20:41:34.049Z,5.49
2022-11-16T20:44:01.652Z,5.53
2022-11-16T20:46:33.426Z,5.55
2022-11-16T20:49:01.862Z,5.56
2022-11-16T20:51:29.767Z,5.58
2022-11-16T20:53:56.453Z,5.60
2022-11-16T20:56:23.208Z,5.63
2022-11-16T20:58:50.342Z,5.69
2022-11-16T21:01:19.591Z,5.72
2022-11-16T21:03:46.688Z,5.71
2022-11-16T21:06:14.381Z,5.72
2022-11-16T21:08:41.641Z,5.75
2022-11-16T21:11:17.488Z,5.74
2022-11-16T21:14:06.437Z,5.74
2022-11-16T21:16:34.153Z,5.79
2022-11-16T21:19:01.040Z,5.78
2022-11-16T21:21:27.708Z,5.77
2022-11-16T21:23:55.099Z,5.78
2022-11-16T21:26:27.131Z,5.79
2022-11-16T21:28:54.661Z,5.80
2022-11-16T21:31:25.686Z,5.75
2022-11-16T21:33:53.172Z,5.75
2022-11-16T21:36:22.134Z,5.83
2022-11-16T21:38:49.185Z,5.79
2022-11-16T21:41:17.569Z,5.75
2022-11-16T21:43:44.849Z,5.71
2022-11-16T21:46:12.585Z,5.75
2022-11-16T21:48:39.270Z,5.75
2022-11-16T21:51:11.450Z,5.75
2022-11-16T21:53:38.869Z,5.77
2022-11-16T21:56:07.399Z,5.75
2022-11-16T21:58:34.209Z,5.72
2022-11-16T22:01:02.146Z,5.72
2022-11-16T22:03:31.429Z,5.74
2022-11-16T22:06:18.361Z,5.73
2022-11-16T22:08:45.742Z,5.75
2022-11-16T22:11:13.783Z,5.82
2022-11-16T22:13:40.631Z,5.81
2022-11-16T22:16:09.347Z,5.84
2022-11-16T22:18:36.629Z,5.88
2022-11-16T22:21:04.051Z,5.89
2022-11-16T22:23:31.301Z,5.92
2022-11-16T22:26:06.520Z,5.93
2022-11-16T22:28:34.093Z,5.94
